createdAt,value
2018-11-12T00:00:21.188Z,89.35
2018-11-12T00:02:51.608Z,88.94
2018-11-12T00:05:19.980Z,88.92
2018-11-12T00:07:48.444Z,88.93
2018-11-12T00:10:16.853Z,88.44
2018-11-12T00:12:45.175Z,88.63
2018-11-12T00:15:13.695Z,88.84
2018-11-12T00:17:42.038Z,87.80
2018-11-12T00:20:11.812Z,87.84
2018-11-12T00:22:40.232Z,88.58
2018-11-12T00:25:08.749Z,88.30
2018-11-12T00:27:37.394Z,88.76
2018-11-12T00:30:08.460Z,88.56
2018-11-12T00:32:36.817Z,88.40
2018-11-12T00:35:06.106Z,88.87
2018-11-12T00:37:34.431Z,89.03
2018-11-12T00:40:02.772Z,89.50
2018-11-12T00:42:31.201Z,88.86
2018-11-12T00:45:00.370Z,88.90
2018-11-12T00:47:28.741Z,88.92
2018-11-12T00:49:57.112Z,89.84
2018-11-12T00:52:25.460Z,89.56
2018-11-12T00:54:53.964Z,89.45
2018-11-12T00:57:22.329Z,89.76
2018-11-12T00:59:50.753Z,89.42
2018-11-12T01:02:19.116Z,89.14
2018-11-12T01:04:47.535Z,89.33
2018-11-12T01:07:15.892Z,89.09
2018-11-12T01:09:44.242Z,88.50
2018-11-12T01:12:12.643Z,88.78
2018-11-12T01:14:41.001Z,88.93
2018-11-12T01:17:09.363Z,88.55
2018-11-12T01:19:37.759Z,88.59
2018-11-12T01:22:06.243Z,88.36
2018-11-12T01:24:34.590Z,88.76
2018-11-12T01:27:02.924Z,88.71
2018-11-12T01:29:31.268Z,88.80
2018-11-12T01:31:59.599Z,88.82
2018-11-12T01:34:27.945Z,88.77
2018-11-12T01:36:56.256Z,88.66
2018-11-12T01:39:24.578Z,89.25
2018-11-12T01:41:52.974Z,89.18
2018-11-12T01:44:21.288Z,89.09
2018-11-12T01:46:49.611Z,89.05
2018-11-12T01:49:17.958Z,89.18
2018-11-12T01:51:46.298Z,89.21
2018-11-12T01:54:14.634Z,89.28
2018-11-12T01:56:42.979Z,89.17
2018-11-12T01:59:11.328Z,89.15
2018-11-12T02:01:39.736Z,89.57
2018-11-12T02:04:08.031Z,89.32
2018-11-12T02:06:36.359Z,89.37
2018-11-12T02:09:07.214Z,89.21
2018-11-12T02:11:35.490Z,89.33
2018-11-12T02:14:03.938Z,89.47
2018-11-12T02:16:32.279Z,89.20
2018-11-12T02:19:00.599Z,89.64
2018-11-12T02:21:28.936Z,88.58
2018-11-12T02:23:57.272Z,89.23
2018-11-12T02:26:27.836Z,89.06
2018-11-12T02:28:56.174Z,89.50
2018-11-12T02:31:24.569Z,89.56
2018-11-12T02:33:52.852Z,88.93
2018-11-12T02:36:21.185Z,88.89
2018-11-12T02:38:49.537Z,89.17
2018-11-12T02:41:17.863Z,89.00
2018-11-12T02:43:46.218Z,89.09
2018-11-12T02:46:14.569Z,88.72
2018-11-12T02:48:42.888Z,89.34
2018-11-12T02:51:11.224Z,88.96
2018-11-12T02:53:39.560Z,88.98
2018-11-12T02:56:07.892Z,88.82
2018-11-12T02:58:36.231Z,88.98
2018-11-12T03:01:04.572Z,88.87
2018-11-12T03:03:32.922Z,89.07
2018-11-12T03:06:01.254Z,89.17
2018-11-12T03:08:29.572Z,89.10
2018-11-12T03:10:57.902Z,88.96
2018-11-12T03:13:26.216Z,89.46
2018-11-12T03:15:54.544Z,89.44
2018-11-12T03:18:22.867Z,89.31
2018-11-12T03:20:51.215Z,89.47
2018-11-12T03:23:19.543Z,89.24
2018-11-12T03:25:47.869Z,89.44
2018-11-12T03:28:16.260Z,89.26
2018-11-12T03:30:44.614Z,89.35
2018-11-12T03:33:12.925Z,89.67
2018-11-12T03:35:41.267Z,89.49
2018-11-12T03:38:09.598Z,89.47
2018-11-12T03:40:37.942Z,89.30
2018-11-12T03:43:06.533Z,89.91
2018-11-12T03:45:34.888Z,89.71
2018-11-12T03:48:03.269Z,90.05
2018-11-12T03:50:31.645Z,89.59
2018-11-12T03:52:59.987Z,90.11
2018-11-12T03:55:28.427Z,90.22
2018-11-12T03:57:56.786Z,90.11
2018-11-12T04:00:30.784Z,90.37
2018-11-12T04:02:59.145Z,90.56
2018-11-12T04:05:27.790Z,91.08
2018-11-12T04:07:56.559Z,90.68
2018-11-12T04:10:25.257Z,90.88
2018-11-12T04:12:53.684Z,90.55
2018-11-12T04:15:23.342Z,90.60
2018-11-12T04:17:51.704Z,90.56
2018-11-12T04:20:21.334Z,90.51
2018-11-12T04:22:55.014Z,90.50
2018-11-12T04:25:23.362Z,90.56
2018-11-12T04:27:51.700Z,90.53
2018-11-12T04:30:20.884Z,90.05
2018-11-12T04:32:49.233Z,90.65
2018-11-12T04:35:17.628Z,90.38
2018-11-12T04:37:46.000Z,90.65
2018-11-12T04:40:17.752Z,90.29
2018-11-12T04:42:47.107Z,90.70
2018-11-12T04:45:16.730Z,90.57
2018-11-12T04:47:45.957Z,90.60
2018-11-12T04:50:17.091Z,90.50
2018-11-12T04:52:45.656Z,90.92
2018-11-12T04:55:15.266Z,91.03
2018-11-12T04:57:44.144Z,90.99
2018-11-12T05:00:15.585Z,90.82
2018-11-12T05:02:44.169Z,90.54
2018-11-12T05:05:14.832Z,90.87
2018-11-12T05:07:43.594Z,90.52
2018-11-12T05:10:13.294Z,90.62
2018-11-12T05:12:42.405Z,90.90
2018-11-12T05:15:12.933Z,90.64
2018-11-12T05:17:41.405Z,90.78
2018-11-12T05:20:15.062Z,91.43
2018-11-12T05:22:43.704Z,90.87
2018-11-12T05:25:12.181Z,91.04
2018-11-12T05:27:40.680Z,90.92
2018-11-12T05:30:13.069Z,91.24
2018-11-12T05:32:41.464Z,91.88
2018-11-12T05:35:11.249Z,91.75
2018-11-12T05:37:39.665Z,91.44
2018-11-12T05:40:10.566Z,91.46
2018-11-12T05:42:39.077Z,91.56
2018-11-12T05:45:07.711Z,91.38
2018-11-12T05:47:36.708Z,91.77
2018-11-12T05:50:07.406Z,91.76
2018-11-12T05:52:35.748Z,92.25
2018-11-12T05:55:04.133Z,91.70
2018-11-12T05:57:32.491Z,92.01
2018-11-12T06:00:00.859Z,91.60
2018-11-12T06:02:29.243Z,91.50
2018-11-12T06:04:57.761Z,91.33
2018-11-12T06:07:26.000Z,91.94
2018-11-12T06:09:54.376Z,91.49
2018-11-12T06:12:22.788Z,91.77
2018-11-12T06:14:51.211Z,91.30
2018-11-12T06:17:19.560Z,91.44
2018-11-12T06:19:47.925Z,91.60
2018-11-12T06:22:16.284Z,91.63
2018-11-12T06:24:44.660Z,91.52
2018-11-12T06:27:13.016Z,91.52
2018-11-12T06:29:41.418Z,91.65
2018-11-12T06:32:09.777Z,91.42
2018-11-12T06:34:38.140Z,91.75
2018-11-12T06:37:06.925Z,91.61
2018-11-12T06:39:35.968Z,91.21
2018-11-12T06:42:04.372Z,91.55
2018-11-12T06:44:32.757Z,91.77
2018-11-12T06:47:01.105Z,91.44
2018-11-12T06:49:29.472Z,91.42
2018-11-12T06:51:57.893Z,91.04
2018-11-12T06:54:26.815Z,91.21
2018-11-12T06:56:55.190Z,91.25
2018-11-12T06:59:23.535Z,91.08
2018-11-12T07:01:52.798Z,90.86
2018-11-12T07:04:21.967Z,90.78
2018-11-12T07:06:50.399Z,90.79
2018-11-12T07:09:18.795Z,90.64
2018-11-12T07:11:47.204Z,90.79
2018-11-12T07:14:15.585Z,90.29
2018-11-12T07:16:43.960Z,90.07
2018-11-12T07:19:12.473Z,90.02
2018-11-12T07:21:40.859Z,90.12
2018-11-12T07:24:09.364Z,90.35
2018-11-12T07:26:37.722Z,90.37
2018-11-12T07:29:06.397Z,89.95
2018-11-12T07:31:34.812Z,90.09
2018-11-12T07:34:03.203Z,89.88
2018-11-12T07:36:31.613Z,89.76
2018-11-12T07:38:59.964Z,89.36
2018-11-12T07:41:28.750Z,89.52
2018-11-12T07:43:57.117Z,89.58
2018-11-12T07:46:25.483Z,89.60
2018-11-12T07:48:53.954Z,89.64
2018-11-12T07:51:22.408Z,89.60
2018-11-12T07:53:51.687Z,89.02
2018-11-12T07:56:20.102Z,89.17
2018-11-12T07:58:48.604Z,89.46
2018-11-12T08:01:17.013Z,89.32
2018-11-12T08:03:45.530Z,88.95
2018-11-12T08:06:13.798Z,89.13
2018-11-12T08:08:42.235Z,89.07
2018-11-12T08:11:10.912Z,88.71
2018-11-12T08:13:39.483Z,89.32
2018-11-12T08:16:07.849Z,88.68
2018-11-12T08:18:36.226Z,88.00
2018-11-12T08:21:04.923Z,87.97
2018-11-12T08:23:33.287Z,88.17
2018-11-12T08:26:01.649Z,88.33
2018-11-12T08:28:30.003Z,87.52
2018-11-12T08:30:58.406Z,88.15
2018-11-12T08:33:26.760Z,88.07
2018-11-12T08:35:55.104Z,88.14
2018-11-12T08:38:23.489Z,88.12
2018-11-12T08:40:52.094Z,88.16
2018-11-12T08:43:20.275Z,88.36
2018-11-12T08:45:48.683Z,88.11
2018-11-12T08:48:17.035Z,88.51
2018-11-12T08:50:45.551Z,88.22
2018-11-12T08:53:13.926Z,88.44
2018-11-12T08:55:42.881Z,88.54
2018-11-12T08:58:11.903Z,88.39
2018-11-12T09:00:51.133Z,88.49
2018-11-12T09:03:20.545Z,88.36
2018-11-12T09:05:48.948Z,88.33
2018-11-12T09:08:17.376Z,87.59
2018-11-12T09:10:45.725Z,87.76
2018-11-12T09:13:14.612Z,87.93
2018-11-12T09:15:43.014Z,87.71
2018-11-12T09:18:11.444Z,88.04
2018-11-12T09:20:39.819Z,88.02
2018-11-12T09:23:08.171Z,87.40
2018-11-12T09:25:36.550Z,87.63
2018-11-12T09:28:05.404Z,87.10
2018-11-12T09:30:33.824Z,86.94
2018-11-12T09:33:03.267Z,87.31
2018-11-12T09:35:32.688Z,87.22
2018-11-12T09:38:02.498Z,87.22
2018-11-12T09:40:32.521Z,87.21
2018-11-12T09:43:00.896Z,87.02
2018-11-12T09:45:29.376Z,86.17
2018-11-12T09:47:57.889Z,86.66
2018-11-12T09:50:27.164Z,85.85
2018-11-12T09:52:56.732Z,86.70
2018-11-12T09:55:26.072Z,86.05
2018-11-12T09:57:56.088Z,86.19
2018-11-12T10:00:24.674Z,84.64
2018-11-12T10:02:54.013Z,85.12
2018-11-12T10:05:22.289Z,84.43
2018-11-12T10:07:55.165Z,85.28
2018-11-12T10:10:34.371Z,85.35
2018-11-12T10:13:03.605Z,84.74
2018-11-12T10:15:33.680Z,85.19
2018-11-12T10:18:00.637Z,85.09
2018-11-12T10:20:27.031Z,83.04
2018-11-12T10:22:55.415Z,82.96
2018-11-12T10:25:23.863Z,82.62
2018-11-12T10:27:52.278Z,82.54
2018-11-12T10:30:20.992Z,83.53
2018-11-12T10:32:49.405Z,82.66
2018-11-12T10:35:17.790Z,82.17
2018-11-12T10:37:46.127Z,82.37
2018-11-12T10:40:17.039Z,82.64
2018-11-12T10:42:45.727Z,82.96
2018-11-12T10:45:14.744Z,83.18
2018-11-12T10:47:43.549Z,81.95
2018-11-12T10:50:11.949Z,81.02
2018-11-12T10:52:40.361Z,81.21
2018-11-12T10:55:11.283Z,81.10
2018-11-12T10:57:39.526Z,82.10
2018-11-12T11:07:22.447Z,81.95
2018-11-12T11:09:51.240Z,81.71
2018-11-12T11:12:19.622Z,81.83
2018-11-12T11:14:48.033Z,81.87
2018-11-12T11:17:16.467Z,82.03
2018-11-12T11:19:44.903Z,82.17
2018-11-12T11:22:13.854Z,81.86
2018-11-12T11:24:42.262Z,82.59
2018-11-12T11:27:10.746Z,81.76
2018-11-12T11:29:39.188Z,81.55
2018-11-12T11:32:07.606Z,80.99
2018-11-12T11:34:36.050Z,80.95
2018-11-12T11:37:04.429Z,81.44
2018-11-12T11:39:32.801Z,81.53
2018-11-12T11:42:01.185Z,81.09
2018-11-12T11:44:29.569Z,81.72
2018-11-12T11:46:57.952Z,79.69
2018-11-12T11:49:26.328Z,80.41
2018-11-12T11:51:54.746Z,80.59
2018-11-12T11:54:23.189Z,79.95
2018-11-12T11:56:51.722Z,80.08
2018-11-12T11:59:19.952Z,79.65
2018-11-12T12:01:48.391Z,80.61
2018-11-12T12:04:16.805Z,79.79
2018-11-12T12:06:45.149Z,79.92
2018-11-12T12:09:13.606Z,78.08
2018-11-12T12:11:41.954Z,76.88
2018-11-12T12:14:10.320Z,78.24
2018-11-12T12:16:38.663Z,77.65
2018-11-12T12:19:07.545Z,75.74
2018-11-12T12:21:35.941Z,76.67
2018-11-12T12:24:04.310Z,76.12
2018-11-12T12:26:32.704Z,76.22
2018-11-12T12:29:01.589Z,76.95
2018-11-12T12:31:29.966Z,76.98
2018-11-12T12:33:58.432Z,75.50
2018-11-12T12:36:26.804Z,76.56
2018-11-12T12:38:55.207Z,77.10
2018-11-12T12:41:23.587Z,75.74
2018-11-12T12:43:51.970Z,75.86
2018-11-12T12:46:20.347Z,75.89
2018-11-12T12:48:48.752Z,74.24
2018-11-12T12:51:17.418Z,75.10
2018-11-12T12:53:45.824Z,75.35
2018-11-12T12:56:15.235Z,75.33
2018-11-12T12:58:43.610Z,74.92
2018-11-12T13:01:11.953Z,74.88
2018-11-12T13:03:40.343Z,75.52
2018-11-12T13:06:08.749Z,74.79
2018-11-12T13:08:37.232Z,74.88
2018-11-12T13:11:05.990Z,75.54
2018-11-12T13:16:01.782Z,75.01
2018-11-12T13:18:30.165Z,75.06
2018-11-12T13:20:58.671Z,74.76
2018-11-12T13:23:27.033Z,73.60
2018-11-12T13:25:55.396Z,74.39
2018-11-12T13:28:23.789Z,72.64
2018-11-12T13:30:52.756Z,73.15
2018-11-12T13:33:21.738Z,73.28
2018-11-12T13:35:50.118Z,72.39
2018-11-12T13:38:18.556Z,73.32
2018-11-12T13:40:47.004Z,72.22
2018-11-12T13:43:15.424Z,73.27
2018-11-12T13:45:43.804Z,73.04
2018-11-12T13:48:12.222Z,73.63
2018-11-12T13:50:40.620Z,74.24
2018-11-12T13:53:09.169Z,72.52
2018-11-12T13:55:38.177Z,73.84
2018-11-12T13:58:06.564Z,72.38
2018-11-12T14:00:34.981Z,73.54
2018-11-12T14:03:03.348Z,73.95
2018-11-12T14:05:31.735Z,74.27
2018-11-12T14:08:00.142Z,73.70
2018-11-12T14:10:29.717Z,73.66
2018-11-12T14:12:58.801Z,73.57
2018-11-12T14:15:27.254Z,73.65
2018-11-12T14:17:56.184Z,73.74
2018-11-12T14:20:25.505Z,74.25
2018-11-12T14:22:53.825Z,74.22
2018-11-12T14:25:23.296Z,73.34
2018-11-12T14:27:52.983Z,74.07
2018-11-12T14:30:23.098Z,74.04
2018-11-12T14:32:51.580Z,73.73
2018-11-12T14:35:20.011Z,73.94
2018-11-12T14:37:48.531Z,74.41
2018-11-12T14:40:17.853Z,73.66
2018-11-12T14:42:46.325Z,74.70
2018-11-12T14:45:19.278Z,74.35
2018-11-12T14:47:48.000Z,74.58
2018-11-12T14:50:16.402Z,74.14
2018-11-12T14:52:44.819Z,74.82
2018-11-12T14:55:14.520Z,74.89
2018-11-12T14:57:42.873Z,75.17
2018-11-12T15:00:13.809Z,75.07
2018-11-12T15:02:42.228Z,75.10
2018-11-12T15:05:10.640Z,75.51
2018-11-12T15:07:39.194Z,75.54
2018-11-12T15:10:09.235Z,75.79
2018-11-12T15:12:37.689Z,76.01
2018-11-12T15:15:07.581Z,75.51
2018-11-12T15:17:35.922Z,75.42
2018-11-12T15:20:05.180Z,75.65
2018-11-12T15:22:33.564Z,75.77
2018-11-12T15:25:01.946Z,76.35
2018-11-12T15:27:30.666Z,76.48
2018-11-12T15:29:59.072Z,76.48
2018-11-12T15:32:27.493Z,76.40
2018-11-12T15:34:55.896Z,76.57
2018-11-12T15:37:24.323Z,76.70
2018-11-12T15:39:52.664Z,76.62
2018-11-12T15:42:21.102Z,76.93
2018-11-12T15:44:49.494Z,77.07
2018-11-12T15:47:17.899Z,76.78
2018-11-12T15:49:46.313Z,76.85
2018-11-12T15:52:14.689Z,77.27
2018-11-12T15:54:43.681Z,77.30
2018-11-12T15:57:12.240Z,77.02
2018-11-12T15:59:40.724Z,77.11
2018-11-12T16:02:09.121Z,77.44
2018-11-12T16:04:37.542Z,77.48
2018-11-12T16:07:06.040Z,77.36
2018-11-12T16:09:34.433Z,77.29
2018-11-12T16:12:02.907Z,77.49
2018-11-12T16:14:32.131Z,77.55
2018-11-12T16:17:00.565Z,77.35
2018-11-12T16:19:28.920Z,77.38
2018-11-12T16:21:57.288Z,77.50
2018-11-12T16:24:25.671Z,77.62
2018-11-12T16:26:54.007Z,77.52
2018-11-12T16:29:22.420Z,77.59
2018-11-12T16:31:50.805Z,77.50
2018-11-12T16:34:19.218Z,77.72
2018-11-12T16:36:47.959Z,77.28
2018-11-12T16:39:16.346Z,77.56
2018-11-12T16:41:44.788Z,77.54
2018-11-12T16:44:13.270Z,76.68
2018-11-12T16:46:41.627Z,77.20
2018-11-12T16:49:10.145Z,76.66
2018-11-12T16:51:38.594Z,77.06
2018-11-12T16:54:07.824Z,76.19
2018-11-12T16:56:37.013Z,76.78
2018-11-12T16:59:05.434Z,76.96
2018-11-12T17:01:33.806Z,77.22
2018-11-12T17:04:02.145Z,77.20
2018-11-12T17:06:30.479Z,76.90
2018-11-12T17:08:58.880Z,77.23
2018-11-12T17:11:27.222Z,77.55
2018-11-12T17:13:55.565Z,77.98
2018-11-12T17:16:23.910Z,77.28
2018-11-12T17:18:52.253Z,77.21
2018-11-12T17:21:20.577Z,77.45
2018-11-12T17:23:48.911Z,77.53
2018-11-12T17:26:17.297Z,77.75
2018-11-12T17:28:45.601Z,77.45
2018-11-12T17:31:13.922Z,77.77
2018-11-12T17:33:42.258Z,77.54
2018-11-12T17:36:10.592Z,77.17
2018-11-12T17:38:38.940Z,77.31
2018-11-12T17:41:07.558Z,76.87
2018-11-12T17:43:35.893Z,77.20
2018-11-12T17:46:04.233Z,77.49
2018-11-12T17:48:32.708Z,77.50
2018-11-12T17:51:01.054Z,77.31
2018-11-12T17:53:29.389Z,77.38
2018-11-12T17:55:57.771Z,77.51
2018-11-12T17:58:26.164Z,77.47
2018-11-12T18:00:54.486Z,77.25
2018-11-12T18:03:22.836Z,77.23
2018-11-12T18:05:51.188Z,77.13
2018-11-12T18:08:19.505Z,77.08
2018-11-12T18:10:47.887Z,77.27
2018-11-12T18:13:16.225Z,77.21
2018-11-12T18:15:44.572Z,77.73
2018-11-12T18:18:12.896Z,77.43
2018-11-12T18:20:41.224Z,77.43
2018-11-12T18:23:09.590Z,77.15
2018-11-12T18:25:37.987Z,77.49
2018-11-12T18:28:06.585Z,77.78
2018-11-12T18:30:35.134Z,77.29
2018-11-12T18:33:03.325Z,77.33
2018-11-12T18:35:31.693Z,77.44
2018-11-12T18:38:00.100Z,77.49
2018-11-12T18:40:29.783Z,76.78
2018-11-12T18:42:58.133Z,76.82
2018-11-12T18:45:27.428Z,76.93
2018-11-12T18:47:56.115Z,77.23
2018-11-12T18:50:25.824Z,77.29
2018-11-12T18:52:54.162Z,76.49
2018-11-12T18:55:22.494Z,77.30
2018-11-12T18:57:51.284Z,77.44
2018-11-12T19:00:20.915Z,77.52
2018-11-12T19:02:49.676Z,77.09
2018-11-12T19:05:22.864Z,77.21
2018-11-12T19:07:52.184Z,77.46
2018-11-12T19:10:23.822Z,77.68
2018-11-12T19:12:52.605Z,77.49
2018-11-12T19:15:22.511Z,77.60
2018-11-12T19:17:54.106Z,77.97
2018-11-12T19:20:22.490Z,77.64
2018-11-12T19:22:50.811Z,77.97
2018-11-12T19:25:19.152Z,77.75
2018-11-12T19:27:47.501Z,77.75
2018-11-12T19:30:19.143Z,77.57
2018-11-12T19:32:47.507Z,77.77
2018-11-12T19:35:17.235Z,77.92
2018-11-12T19:37:45.560Z,77.64
2018-11-12T19:40:15.456Z,77.61
2018-11-12T19:42:44.732Z,77.68
2018-11-12T19:45:13.713Z,77.58
2018-11-12T19:47:42.371Z,77.66
2018-11-12T19:50:13.249Z,77.93
2018-11-12T19:52:42.651Z,77.68
2018-11-12T19:55:10.997Z,77.78
2018-11-12T19:57:39.506Z,77.83
2018-11-12T20:00:11.533Z,77.66
2018-11-12T20:02:40.340Z,77.74
2018-11-12T20:05:08.835Z,78.27
2018-11-12T20:07:37.198Z,77.59
2018-11-12T20:10:07.713Z,78.10
2018-11-12T20:12:36.973Z,78.01
2018-11-12T20:15:05.729Z,77.95
2018-11-12T20:17:34.097Z,77.94
2018-11-12T20:20:02.492Z,77.98
2018-11-12T20:22:30.853Z,77.94
2018-11-12T20:24:59.247Z,78.31
2018-11-12T20:27:27.554Z,78.00
2018-11-12T20:29:55.932Z,77.93
2018-11-12T20:32:24.352Z,78.19
2018-11-12T20:34:52.690Z,77.81
2018-11-12T20:37:21.041Z,77.59
2018-11-12T20:39:49.372Z,77.80
2018-11-12T20:42:17.733Z,78.02
2018-11-12T20:44:46.076Z,78.11
2018-11-12T20:47:14.436Z,77.65
2018-11-12T20:49:42.788Z,77.88
2018-11-12T20:52:11.133Z,77.81
2018-11-12T20:54:39.462Z,77.75
2018-11-12T20:57:07.828Z,78.03
2018-11-12T20:59:36.178Z,78.36
2018-11-12T21:02:04.581Z,77.97
2018-11-12T21:04:32.921Z,78.02
2018-11-12T21:07:01.276Z,77.77
2018-11-12T21:09:29.637Z,77.99
2018-11-12T21:11:58.002Z,78.14
2018-11-12T21:14:26.351Z,77.57
2018-11-12T21:16:54.696Z,77.79
2018-11-12T21:19:23.078Z,77.97
2018-11-12T21:21:51.413Z,77.64
2018-11-12T21:24:19.762Z,77.68
2018-11-12T21:26:48.155Z,77.21
2018-11-12T21:29:16.525Z,77.33
2018-11-12T21:31:44.961Z,77.65
2018-11-12T21:34:13.277Z,77.66
2018-11-12T21:36:41.739Z,76.69
2018-11-12T21:39:12.521Z,77.29
2018-11-12T21:41:41.067Z,77.31
2018-11-12T21:44:09.547Z,77.36
2018-11-12T21:46:37.885Z,77.51
2018-11-12T21:49:06.512Z,77.63
2018-11-12T21:51:34.861Z,77.50
2018-11-12T21:54:03.358Z,77.14
2018-11-12T21:56:31.723Z,77.52
2018-11-12T21:59:00.068Z,77.10
2018-11-12T22:01:28.480Z,76.66
2018-11-12T22:03:56.811Z,77.19
2018-11-12T22:06:25.145Z,77.29
2018-11-12T22:08:53.499Z,77.10
2018-11-12T22:11:21.814Z,77.46
2018-11-12T22:13:50.159Z,77.31
2018-11-12T22:16:18.518Z,77.34
2018-11-12T22:18:46.890Z,77.11
2018-11-12T22:21:15.216Z,77.14
2018-11-12T22:23:43.556Z,77.02
2018-11-12T22:26:11.910Z,76.90
2018-11-12T22:28:40.279Z,77.14
2018-11-12T22:31:08.631Z,77.06
2018-11-12T22:33:36.966Z,76.74
2018-11-12T22:36:05.284Z,76.70
2018-11-12T22:38:33.600Z,76.87
2018-11-12T22:41:01.933Z,77.42
2018-11-12T22:43:30.252Z,77.13
2018-11-12T22:45:58.605Z,77.18
2018-11-12T22:48:26.905Z,77.01
2018-11-12T22:50:55.252Z,77.20
2018-11-12T22:53:23.601Z,76.77
2018-11-12T22:55:51.926Z,77.24
2018-11-12T22:58:20.249Z,77.07
2018-11-12T23:00:48.617Z,76.71
2018-11-12T23:03:16.970Z,76.83
2018-11-12T23:05:45.431Z,77.21
2018-11-12T23:08:13.756Z,77.09
2018-11-12T23:10:42.109Z,77.10
2018-11-12T23:13:10.426Z,77.34
2018-11-12T23:15:39.208Z,77.19
2018-11-12T23:18:07.693Z,77.51
2018-11-12T23:20:36.480Z,77.21
2018-11-12T23:23:05.105Z,77.09
2018-11-12T23:25:33.484Z,76.96
2018-11-12T23:28:01.903Z,77.41
2018-11-12T23:30:30.243Z,77.26
2018-11-12T23:32:58.581Z,77.89
2018-11-12T23:35:26.928Z,77.15
2018-11-12T23:37:55.266Z,77.45
2018-11-12T23:40:23.588Z,77.35
2018-11-12T23:42:51.925Z,77.66
2018-11-12T23:45:20.283Z,77.57
2018-11-12T23:47:48.618Z,77.53
2018-11-12T23:50:19.147Z,77.48
2018-11-12T23:52:48.353Z,77.49
2018-11-12T23:55:17.031Z,77.61
2018-11-12T23:57:46.228Z,77.77
